Time;durP1;ratioP1;P1;durP2;ratioP2;P2;SDS_P1;SDS_P2;PMS_P1;PMS_P2;Temp;Humidity;BMP_temperature;BMP_pressure;BME280_temperature;BME280_humidity;BME280_pressure;Samples;Min_cycle;Max_cycle;Signal;HPM_P1;HPM_P2
2022/06/28 00:01:42;;;;;;;;;;;;;;;;;;4821184;29;19961;-89
2022/06/28 00:04:11;;;;;;;;;;;;;;;;;;4819524;29;19924;-89
2022/06/28 00:06:39;;;;;;;;;;;;;;;;;;4817649;29;19936;-89
2022/06/28 00:09:05;;;;;;;;;;;;;;;;;;4810919;29;20751;-89
2022/06/28 00:11:32;;;;;;;;;;;;;;;;;;4809207;29;19932;-90
2022/06/28 00:14:00;;;;;;;;;;;;;;;;;;4823301;29;19932;-89
2022/06/28 00:16:31;;;;;;;;;;;;;;;;;;4827972;29;19928;-88
2022/06/28 00:18:58;;;;;;;;;;;;;;;;;;4827135;29;21933;-88
2022/06/28 00:21:31;;;;;;;;;;;;;;;;;;4830471;29;20375;-89
2022/06/28 00:23:57;;;;;;;;;;;;;;;;;;4823505;29;20066;-89
2022/06/28 00:26:24;;;;;;;;;;;;;;;;;;4811273;29;19981;-88
2022/06/28 00:28:50;;;;;;;;;;;;;;;;;;4820573;29;20387;-88
2022/06/28 00:31:17;;;;;;;;;;;;;;;;;;4834485;29;19975;-88
2022/06/28 00:33:43;;;;;;;;;;;;;;;;;;4806747;29;20925;-88
2022/06/28 00:36:24;;;;;;;;;;;;;;;;;;4823710;29;20023;-89
2022/06/28 00:38:51;;;;;;;;;;;;;;;;;;4804742;29;19933;-89
2022/06/28 00:41:30;;;;;;;;;;;;;;;;;;4826250;29;19936;-89
2022/06/28 00:43:56;;;;;;;;;;;;;;;;;;4822099;29;20195;-88
2022/06/28 00:46:24;;;;;;;;;;;;;;;;;;4810519;29;19933;-88
2022/06/28 00:48:50;;;;;;;;;;;;;;;;;;4822920;29;19932;-89
2022/06/28 00:51:31;;;;;;;;;;;;;;;;;;4788190;29;20373;-88
2022/06/28 00:53:59;;;;;;;;;;;;;;;;;;4784707;29;20097;-89
2022/06/28 00:56:25;;;;;;;;;;;;;;;;;;4773898;29;20065;-89
2022/06/28 00:58:52;;;;;;;;;;;;;;;;;;4788553;29;19932;-88
2022/06/28 01:01:20;;;;;;;;;;;;;;;;;;4794660;29;19933;-89
2022/06/28 01:03:46;;;;;;;;;;;;;;;;;;4783083;29;20926;-89
2022/06/28 01:06:13;;;;;;;;;;;;;;;;;;4764472;29;19937;-88
2022/06/28 01:08:39;;;;;;;;;;;;;;;;;;4772530;29;20424;-89
2022/06/28 01:11:28;;;;;;;;;;;;;;;;;;4760795;29;20016;-88
2022/06/28 01:14:11;;;;;;;;;;;;;;;;;;4787723;29;19931;-89
2022/06/28 01:16:38;;;;;;;;;;;;;;;;;;4769869;29;20067;-89
2022/06/28 01:19:05;;;;;;;;;;;;;;;;;;4793113;29;19929;-88
2022/06/28 01:21:31;;;;;;;;;;;;;;;;;;4762088;29;20293;-88
2022/06/28 01:23:57;;;;;;;;;;;;;;;;;;4817549;29;19999;-89
2022/06/28 01:26:25;;;;;;;;;;;;;;;;;;4823476;29;19939;-89
2022/06/28 01:28:52;;;;;;;;;;;;;;;;;;4806014;29;19942;-89
2022/06/28 01:31:20;;;;;;;;;;;;;;;;;;4822375;29;20020;-89
2022/06/28 01:33:46;;;;;;;;;;;;;;;;;;4822820;29;19932;-88
2022/06/28 01:36:12;;;;;;;;;;;;;;;;;;4822403;29;21505;-88
2022/06/28 01:38:48;;;;;;;;;;;;;;;;;;4823731;29;20304;-89
2022/06/28 01:41:33;;;;;;;;;;;;;;;;;;4820836;29;19985;-89
2022/06/28 01:44:00;;;;;;;;;;;;;;;;;;4833621;29;22325;-89
2022/06/28 01:46:26;;;;;;;;;;;;;;;;;;4824656;29;19936;-89
2022/06/28 01:48:52;;;;;;;;;;;;;;;;;;4801499;29;19963;-89
2022/06/28 01:51:27;;;;;;;;;;;;;;;;;;4833708;29;19933;-89
2022/06/28 01:53:54;;;;;;;;;;;;;;;;;;4818401;29;19978;-89
2022/06/28 01:56:20;;;;;;;;;;;;;;;;;;4817048;29;19938;-88
2022/06/28 01:58:47;;;;;;;;;;;;;;;;;;4821786;29;19929;-89
2022/06/28 02:01:14;;;;;;;;;;;;;;;;;;4808131;29;19936;-89
2022/06/28 02:03:41;;;;;;;;;;;;;;;;;;4822515;29;20043;-89
2022/06/28 02:06:09;;;;;;;;;;;;;;;;;;4824294;29;20011;-89
2022/06/28 02:08:35;;;;;;;;;;;;;;;;;;4821987;29;19958;-89
2022/06/28 02:11:02;;;;;;;;;;;;;;;;;;4820530;29;20514;-89
2022/06/28 02:13:29;;;;;;;;;;;;;;;;;;4823299;29;20456;-89
2022/06/28 02:15:57;;;;;;;;;;;;;;;;;;4819749;29;19936;-89
2022/06/28 02:18:24;;;;;;;;;;;;;;;;;;4820913;29;20380;-89
2022/06/28 02:20:50;;;;;;;;;;;;;;;;;;4815978;29;19932;-89
2022/06/28 02:23:17;;;;;;;;;;;;;;;;;;4830228;29;19931;-89
2022/06/28 02:25:44;;;;;;;;;;;;;;;;;;4806210;29;20031;-89
2022/06/28 02:28:10;;;;;;;;;;;;;;;;;;4811215;29;19932;-89
2022/06/28 02:30:37;;;;;;;;;;;;;;;;;;4819965;29;19932;-89
2022/06/28 02:33:04;;;;;;;;;;;;;;;;;;4809721;29;19935;-89
2022/06/28 02:41:10;;;;;;;;;;;;;;;;;;4821963;29;19957;-89
2022/06/28 02:43:37;;;;;;;;;;;;;;;;;;4821334;29;19932;-89
2022/06/28 02:46:03;;;;;;;;;;;;;;;;;;4822862;29;20585;-89
2022/06/28 02:48:31;;;;;;;;;;;;;;;;;;4818865;29;19967;-89
2022/06/28 02:50:58;;;;;;;;;;;;;;;;;;4813218;29;20656;-89
2022/06/28 02:53:25;;;;;;;;;;;;;;;;;;4835366;29;19924;-89
2022/06/28 02:55:51;;;;;;;;;;;;;;;;;;4819142;29;19935;-90
2022/06/28 02:58:18;;;;;;;;;;;;;;;;;;4823341;29;19929;-88
2022/06/28 03:00:45;;;;;;;;;;;;;;;;;;4817797;29;19932;-89
2022/06/28 03:03:14;;;;;;;;;;;;;;;;;;4809764;29;19928;-89
2022/06/28 03:05:39;;;;;;;;;;;;;;;;;;4815180;29;20062;-90
2022/06/28 03:08:05;;;;;;;;;;;;;;;;;;4809853;29;19975;-89
2022/06/28 03:10:32;;;;;;;;;;;;;;;;;;4807337;29;19967;-89
2022/06/28 03:12:59;;;;;;;;;;;;;;;;;;4807761;29;19932;-90
2022/06/28 03:15:26;;;;;;;;;;;;;;;;;;4813355;29;20467;-89
2022/06/28 03:18:12;;;;;;;;;;;;;;;;;;4820753;29;20077;-89
2022/06/28 03:20:46;;;;;;;;;;;;;;;;;;4814981;29;19931;-89
2022/06/28 03:23:13;;;;;;;;;;;;;;;;;;4835476;29;19932;-90
2022/06/28 03:25:39;;;;;;;;;;;;;;;;;;4828975;29;19936;-89
2022/06/28 03:28:05;;;;;;;;;;;;;;;;;;4838122;29;19932;-89
2022/06/28 03:30:33;;;;;;;;;;;;;;;;;;4824902;29;19971;-89
2022/06/28 03:32:58;;;;;;;;;;;;;;;;;;4818584;29;19955;-90
2022/06/28 03:35:25;;;;;;;;;;;;;;;;;;4819813;29;20008;-88
2022/06/28 03:37:53;;;;;;;;;;;;;;;;;;4818567;29;20398;-89
2022/06/28 03:40:19;;;;;;;;;;;;;;;;;;4829948;29;20311;-89
2022/06/28 03:42:53;;;;;;;;;;;;;;;;;;4815411;29;19928;-89
2022/06/28 03:45:20;;;;;;;;;;;;;;;;;;4829668;29;20020;-89
2022/06/28 03:47:49;;;;;;;;;;;;;;;;;;4821327;29;20581;-90
2022/06/28 03:50:15;;;;;;;;;;;;;;;;;;4813350;29;20021;-90
2022/06/28 03:52:42;;;;;;;;;;;;;;;;;;4811626;29;19934;-90
2022/06/28 03:55:11;;;;;;;;;;;;;;;;;;4816630;29;20476;-90
2022/06/28 03:57:47;;;;;;;;;;;;;;;;;;4825593;29;19947;-89
2022/06/28 04:00:14;;;;;;;;;;;;;;;;;;4831620;29;20376;-90
2022/06/28 04:02:40;;;;;;;;;;;;;;;;;;4808095;29;19929;-90
2022/06/28 04:05:08;;;;;;;;;;;;;;;;;;4818791;29;19936;-90
2022/06/28 04:07:35;;;;;;;;;;;;;;;;;;4810771;29;19964;-90
2022/06/28 04:10:02;;;;;;;;;;;;;;;;;;4811049;29;19936;-90
2022/06/28 04:12:28;;;;;;;;;;;;;;;;;;4831369;29;19932;-91
2022/06/28 04:14:55;;;;;;;;;;;;;;;;;;4807607;29;19947;-90
2022/06/28 04:17:22;;;;;;;;;;;;;;;;;;4813658;29;19939;-89
2022/06/28 04:19:49;;;;;;;;;;;;;;;;;;4809841;29;20285;-89
2022/06/28 04:22:15;;;;;;;;;;;;;;;;;;4825011;29;19932;-90
2022/06/28 04:24:41;;;;;;;;;;;;;;;;;;4819522;29;20920;-90
2022/06/28 04:27:07;;;;;;;;;;;;;;;;;;4817888;29;19932;-90
2022/06/28 04:29:36;;;;;;;;;;;;;;;;;;4829584;29;20430;-90
2022/06/28 04:32:03;;;;;;;;;;;;;;;;;;4815624;29;21312;-89
2022/06/28 04:34:31;;;;;;;;;;;;;;;;;;4812021;29;20000;-89
2022/06/28 04:36:58;;;;;;;;;;;;;;;;;;4822650;29;19965;-89
2022/06/28 04:39:24;;;;;;;;;;;;;;;;;;4829225;29;19936;-90
2022/06/28 04:41:50;;;;;;;;;;;;;;;;;;4807196;29;20046;-90
2022/06/28 04:44:20;;;;;;;;;;;;;;;;;;4824819;29;20011;-89
2022/06/28 04:46:47;;;;;;;;;;;;;;;;;;4826030;29;19932;-89
2022/06/28 04:49:13;;;;;;;;;;;;;;;;;;4827179;29;20064;-90
2022/06/28 04:51:41;;;;;;;;;;;;;;;;;;4810592;29;19948;-90
2022/06/28 04:54:08;;;;;;;;;;;;;;;;;;4826833;29;20494;-90
2022/06/28 04:56:50;;;;;;;;;;;;;;;;;;4822683;29;20011;-90
2022/06/28 04:59:16;;;;;;;;;;;;;;;;;;4827775;29;19951;-90
2022/06/28 05:01:42;;;;;;;;;;;;;;;;;;4808517;29;20289;-90
2022/06/28 05:04:08;;;;;;;;;;;;;;;;;;4824030;29;19955;-90
2022/06/28 05:06:35;;;;;;;;;;;;;;;;;;4826921;29;20607;-90
2022/06/28 05:09:03;;;;;;;;;;;;;;;;;;4825476;29;19932;-91
2022/06/28 05:11:30;;;;;;;;;;;;;;;;;;4814920;29;19930;-90
2022/06/28 05:14:01;;;;;;;;;;;;;;;;;;4816381;29;19975;-90
2022/06/28 05:16:29;;;;;;;;;;;;;;;;;;4802595;29;19928;-90
2022/06/28 05:19:10;;;;;;;;;;;;;;;;;;4790478;29;19999;-89
2022/06/28 05:21:36;;;;;;;;;;;;;;;;;;4765554;29;20011;-88
2022/06/28 05:24:20;;;;;;;;;;;;;;;;;;4790710;29;19932;-89
2022/06/28 05:26:47;;;;;;;;;;;;;;;;;;4777272;29;19971;-88
2022/06/28 05:29:15;;;;;;;;;;;;;;;;;;4774486;29;20324;-89
2022/06/28 05:31:42;;;;;;;;;;;;;;;;;;4777734;29;19925;-90
2022/06/28 05:34:08;;;;;;;;;;;;;;;;;;4792285;29;19996;-89
2022/06/28 05:36:37;;;;;;;;;;;;;;;;;;4783721;29;19929;-89
2022/06/28 05:39:04;;;;;;;;;;;;;;;;;;4785572;29;20696;-90
2022/06/28 05:41:31;;;;;;;;;;;;;;;;;;4779320;29;19944;-89
2022/06/28 05:43:59;;;;;;;;;;;;;;;;;;4786510;29;19925;-89
2022/06/28 05:46:26;;;;;;;;;;;;;;;;;;4794960;29;19972;-89
2022/06/28 05:48:54;;;;;;;;;;;;;;;;;;4793765;29;19990;-89
2022/06/28 05:51:36;;;;;;;;;;;;;;;;;;4837738;29;19932;-89
2022/06/28 05:54:03;;;;;;;;;;;;;;;;;;4820294;29;20442;-89
2022/06/28 05:56:32;;;;;;;;;;;;;;;;;;4807579;29;20014;-90
2022/06/28 05:58:59;;;;;;;;;;;;;;;;;;4812351;29;20004;-90
2022/06/28 06:01:27;;;;;;;;;;;;;;;;;;4810411;29;20025;-90
2022/06/28 06:03:52;;;;;;;;;;;;;;;;;;4831943;29;19932;-89
2022/06/28 06:06:24;;;;;;;;;;;;;;;;;;4808109;29;19943;-89
2022/06/28 06:08:53;;;;;;;;;;;;;;;;;;4820573;29;19932;-90
2022/06/28 06:11:23;;;;;;;;;;;;;;;;;;4814540;29;19932;-90
2022/06/28 06:13:52;;;;;;;;;;;;;;;;;;4795340;29;19969;-90
2022/06/28 06:16:18;;;;;;;;;;;;;;;;;;4821205;29;19939;-89
2022/06/28 06:18:45;;;;;;;;;;;;;;;;;;4820204;29;19924;-90
2022/06/28 06:21:11;;;;;;;;;;;;;;;;;;4805482;29;19935;-90
2022/06/28 06:23:38;;;;;;;;;;;;;;;;;;4816920;29;19928;-90
2022/06/28 06:26:19;;;;;;;;;;;;;;;;;;4814384;29;19928;-89
2022/06/28 06:28:48;;;;;;;;;;;;;;;;;;4800293;29;21538;-89
2022/06/28 06:31:16;;;;;;;;;;;;;;;;;;4807951;29;20447;-89
2022/06/28 06:33:57;;;;;;;;;;;;;;;;;;4822560;29;19939;-89
2022/06/28 06:36:25;;;;;;;;;;;;;;;;;;4795272;29;19980;-89
2022/06/28 06:38:53;;;;;;;;;;;;;;;;;;4811001;29;19928;-89
2022/06/28 06:41:19;;;;;;;;;;;;;;;;;;4813345;29;19924;-90
2022/06/28 06:43:46;;;;;;;;;;;;;;;;;;4826785;29;19936;-89
2022/06/28 06:46:14;;;;;;;;;;;;;;;;;;4808081;29;19932;-88
2022/06/28 06:48:41;;;;;;;;;;;;;;;;;;4808367;29;19924;-88
2022/06/28 06:51:08;;;;;;;;;;;;;;;;;;4811916;29;20381;-89
2022/06/28 06:53:35;;;;;;;;;;;;;;;;;;4808668;29;19933;-88
2022/06/28 06:56:02;;;;;;;;;;;;;;;;;;4809176;29;20280;-88
2022/06/28 06:58:29;;;;;;;;;;;;;;;;;;4845396;29;19935;-88
2022/06/28 07:00:55;;;;;;;;;;;;;;;;;;4823361;29;19980;-88
2022/06/28 07:03:22;;;;;;;;;;;;;;;;;;4845940;29;19964;-88
2022/06/28 07:05:48;;;;;;;;;;;;;;;;;;4842613;29;19936;-88
2022/06/28 07:08:15;;;;;;;;;;;;;;;;;;4848159;29;19951;-88
2022/06/28 07:10:41;;;;;;;;;;;;;;;;;;4826863;29;19924;-88
2022/06/28 07:13:07;;;;;;;;;;;;;;;;;;4828426;29;20395;-88
2022/06/28 07:15:35;;;;;;;;;;;;;;;;;;4841415;29;20058;-88
2022/06/28 07:18:05;;;;;;;;;;;;;;;;;;4840386;29;19932;-88
2022/06/28 07:20:32;;;;;;;;;;;;;;;;;;4840538;29;19942;-88
2022/06/28 07:22:58;;;;;;;;;;;;;;;;;;4822035;29;19977;-89
2022/06/28 07:25:26;;;;;;;;;;;;;;;;;;4829707;29;19966;-88
2022/06/28 07:27:53;;;;;;;;;;;;;;;;;;4836007;29;19981;-89
2022/06/28 07:30:22;;;;;;;;;;;;;;;;;;4829593;29;19930;-87
2022/06/28 07:32:52;;;;;;;;;;;;;;;;;;4839269;29;20345;-89
2022/06/28 07:35:24;;;;;;;;;;;;;;;;;;4846457;29;20447;-89
2022/06/28 07:37:50;;;;;;;;;;;;;;;;;;4834309;29;20023;-89
2022/06/28 07:40:18;;;;;;;;;;;;;;;;;;4839680;29;20027;-88
2022/06/28 07:42:45;;;;;;;;;;;;;;;;;;4839406;29;19984;-89
2022/06/28 07:45:12;;;;;;;;;;;;;;;;;;4829520;29;19928;-88
2022/06/28 07:47:39;;;;;;;;;;;;;;;;;;4832793;29;19932;-89
2022/06/28 07:52:54;;;;;;;;;;;;;;;;;;4837475;29;19931;-88
2022/06/28 07:55:20;;;;;;;;;;;;;;;;;;4846603;29;19928;-89
2022/06/28 07:57:47;;;;;;;;;;;;;;;;;;4826836;29;19931;-89
2022/06/28 08:00:18;;;;;;;;;;;;;;;;;;4831656;29;19924;-88
2022/06/28 08:02:44;;;;;;;;;;;;;;;;;;4838867;29;19932;-89
2022/06/28 08:05:12;;;;;;;;;;;;;;;;;;4843529;29;19936;-89
2022/06/28 08:07:39;;;;;;;;;;;;;;;;;;4838961;29;19979;-90
2022/06/28 08:10:06;;;;;;;;;;;;;;;;;;4844055;29;20334;-89
2022/06/28 08:12:33;;;;;;;;;;;;;;;;;;4845342;29;19983;-89
2022/06/28 08:14:59;;;;;;;;;;;;;;;;;;4845604;29;19977;-89
2022/06/28 08:17:39;;;;;;;;;;;;;;;;;;4802535;29;20045;-89
2022/06/28 08:20:05;;;;;;;;;;;;;;;;;;4803352;29;20577;-89
2022/06/28 08:22:33;;;;;;;;;;;;;;;;;;4805114;29;19939;-89
2022/06/28 08:25:00;;;;;;;;;;;;;;;;;;4797974;29;19929;-89
2022/06/28 08:27:27;;;;;;;;;;;;;;;;;;4794021;29;19937;-89
2022/06/28 08:29:54;;;;;;;;;;;;;;;;;;4803799;29;19929;-89
2022/06/28 08:32:35;;;;;;;;;;;;;;;;;;4807672;29;20116;-89
2022/06/28 08:35:01;;;;;;;;;;;;;;;;;;4786975;29;20322;-89
2022/06/28 08:37:28;;;;;;;;;;;;;;;;;;4808995;29;19935;-89
2022/06/28 08:39:55;;;;;;;;;;;;;;;;;;4777195;29;19978;-89
2022/06/28 08:42:22;;;;;;;;;;;;;;;;;;4783462;29;19990;-89
2022/06/28 08:44:48;;;;;;;;;;;;;;;;;;4806801;29;20868;-88
2022/06/28 08:47:19;;;;;;;;;;;;;;;;;;4812619;29;19928;-89
2022/06/28 08:49:46;;;;;;;;;;;;;;;;;;4836442;29;19964;-88
2022/06/28 08:52:12;;;;;;;;;;;;;;;;;;4843295;29;19931;-88
2022/06/28 08:54:44;;;;;;;;;;;;;;;;;;4840305;29;19928;-88
2022/06/28 08:57:11;;;;;;;;;;;;;;;;;;4828681;29;19932;-88
2022/06/28 08:59:38;;;;;;;;;;;;;;;;;;4824482;29;19971;-89
2022/06/28 09:02:06;;;;;;;;;;;;;;;;;;4841277;29;20010;-88
2022/06/28 09:04:33;;;;;;;;;;;;;;;;;;4847879;29;19928;-89
2022/06/28 09:07:00;;;;;;;;;;;;;;;;;;4843588;29;19981;-88
2022/06/28 09:09:26;;;;;;;;;;;;;;;;;;4841180;29;19974;-88
2022/06/28 09:12:02;;;;;;;;;;;;;;;;;;4845444;29;20414;-88
2022/06/28 09:14:28;;;;;;;;;;;;;;;;;;4828916;29;20151;-88
2022/06/28 09:16:55;;;;;;;;;;;;;;;;;;4827765;29;20430;-89
2022/06/28 09:19:35;;;;;;;;;;;;;;;;;;4841848;29;19931;-88
2022/06/28 09:22:03;;;;;;;;;;;;;;;;;;4836674;29;19932;-89
2022/06/28 09:24:30;;;;;;;;;;;;;;;;;;4850103;29;19930;-88
2022/06/28 09:26:58;;;;;;;;;;;;;;;;;;4844543;29;19936;-88
2022/06/28 09:29:24;;;;;;;;;;;;;;;;;;4848060;29;19924;-88
2022/06/28 09:31:54;;;;;;;;;;;;;;;;;;4858559;29;20401;-89
2022/06/28 09:34:20;;;;;;;;;;;;;;;;;;4841016;29;20049;-88
2022/06/28 09:36:47;;;;;;;;;;;;;;;;;;4858592;29;20011;-88
2022/06/28 09:39:13;;;;;;;;;;;;;;;;;;4848928;29;19931;-90
2022/06/28 09:41:40;;;;;;;;;;;;;;;;;;4840721;29;19928;-90
2022/06/28 09:44:07;;;;;;;;;;;;;;;;;;4841106;29;20304;-89
2022/06/28 09:46:34;;;;;;;;;;;;;;;;;;4831360;29;19932;-88
2022/06/28 09:49:12;;;;;;;;;;;;;;;;;;4833021;29;19932;-89
2022/06/28 09:51:39;;;;;;;;;;;;;;;;;;4843247;29;19928;-89
2022/06/28 09:54:05;;;;;;;;;;;;;;;;;;4847023;29;19933;-89
2022/06/28 09:56:32;;;;;;;;;;;;;;;;;;4853553;29;20408;-89
2022/06/28 09:58:59;;;;;;;;;;;;;;;;;;4834647;29;19960;-89
2022/06/28 10:01:26;;;;;;;;;;;;;;;;;;4840747;29;19924;-89
2022/06/28 10:03:52;;;;;;;;;;;;;;;;;;4846714;29;19928;-89
2022/06/28 10:06:23;;;;;;;;;;;;;;;;;;4842418;29;19933;-89
2022/06/28 10:08:52;;;;;;;;;;;;;;;;;;4838008;29;19933;-89
2022/06/28 10:11:19;;;;;;;;;;;;;;;;;;4841465;29;20292;-89
2022/06/28 10:16:35;;;;;;;;;;;;;;;;;;4844595;29;19982;-88
2022/06/28 10:19:02;;;;;;;;;;;;;;;;;;4844067;29;19996;-89
2022/06/28 10:21:32;;;;;;;;;;;;;;;;;;4843319;29;19974;-89
2022/06/28 10:23:59;;;;;;;;;;;;;;;;;;4837529;29;19960;-89
2022/06/28 10:26:26;;;;;;;;;;;;;;;;;;4847493;29;19935;-89
2022/06/28 10:28:53;;;;;;;;;;;;;;;;;;4840967;29;19924;-89
2022/06/28 10:31:19;;;;;;;;;;;;;;;;;;4855730;29;20035;-89
2022/06/28 10:33:46;;;;;;;;;;;;;;;;;;4828433;29;20448;-90
2022/06/28 10:36:13;;;;;;;;;;;;;;;;;;4848993;29;19924;-89
2022/06/28 10:38:39;;;;;;;;;;;;;;;;;;4845868;29;19994;-89
2022/06/28 10:41:11;;;;;;;;;;;;;;;;;;4840108;29;19939;-88
2022/06/28 10:43:39;;;;;;;;;;;;;;;;;;4841100;29;19973;-89
2022/06/28 10:46:06;;;;;;;;;;;;;;;;;;4849166;29;19977;-89
2022/06/28 10:48:34;;;;;;;;;;;;;;;;;;4855549;29;19924;-89
2022/06/28 10:51:01;;;;;;;;;;;;;;;;;;4840632;29;19928;-89
2022/06/28 10:53:28;;;;;;;;;;;;;;;;;;4829574;29;19940;-90
2022/06/28 10:55:55;;;;;;;;;;;;;;;;;;4824905;29;19928;-88
2022/06/28 10:58:22;;;;;;;;;;;;;;;;;;4845553;29;19935;-89
2022/06/28 11:00:48;;;;;;;;;;;;;;;;;;4842886;29;19924;-90
2022/06/28 11:03:15;;;;;;;;;;;;;;;;;;4846276;29;19925;-89
2022/06/28 11:05:43;;;;;;;;;;;;;;;;;;4843522;29;19936;-90
2022/06/28 11:08:10;;;;;;;;;;;;;;;;;;4844911;29;19924;-90
2022/06/28 11:10:46;;;;;;;;;;;;;;;;;;4840367;29;19928;-90
2022/06/28 11:13:13;;;;;;;;;;;;;;;;;;4842686;29;19924;-90
2022/06/28 11:15:42;;;;;;;;;;;;;;;;;;4826153;29;19932;-90
2022/06/28 11:18:10;;;;;;;;;;;;;;;;;;4840759;29;19967;-89
2022/06/28 11:20:37;;;;;;;;;;;;;;;;;;4827582;29;19972;-89
2022/06/28 11:23:05;;;;;;;;;;;;;;;;;;4842463;29;19925;-89
2022/06/28 11:28:17;;;;;;;;;;;;;;;;;;4839537;29;19965;-90
2022/06/28 11:30:43;;;;;;;;;;;;;;;;;;4843759;29;19928;-90
2022/06/28 11:33:11;;;;;;;;;;;;;;;;;;4846062;29;19931;-89
2022/06/28 11:35:37;;;;;;;;;;;;;;;;;;4844635;29;20424;-89
2022/06/28 11:38:08;;;;;;;;;;;;;;;;;;4841642;29;19932;-89
2022/06/28 11:40:39;;;;;;;;;;;;;;;;;;4847563;29;20364;-89
2022/06/28 11:43:07;;;;;;;;;;;;;;;;;;4828043;29;20428;-90
2022/06/28 11:45:33;;;;;;;;;;;;;;;;;;4845070;29;20016;-89
2022/06/28 11:48:01;;;;;;;;;;;;;;;;;;4841662;29;20019;-89
2022/06/28 11:50:28;;;;;;;;;;;;;;;;;;4848602;29;20479;-89
2022/06/28 11:52:54;;;;;;;;;;;;;;;;;;4843388;29;19924;-90
2022/06/28 11:55:22;;;;;;;;;;;;;;;;;;4843223;29;19929;-90
2022/06/28 11:58:17;;;;;;;;;;;;;;;;;;4839026;29;19965;-89
2022/06/28 12:00:45;;;;;;;;;;;;;;;;;;4831819;29;19936;-89
2022/06/28 12:03:11;;;;;;;;;;;;;;;;;;4831397;29;20454;-89
2022/06/28 12:05:38;;;;;;;;;;;;;;;;;;4814685;29;20051;-89
2022/06/28 12:08:07;;;;;;;;;;;;;;;;;;4809005;29;20061;-89
2022/06/28 12:10:40;;;;;;;;;;;;;;;;;;4825725;29;19935;-90
2022/06/28 12:13:07;;;;;;;;;;;;;;;;;;4835323;29;20048;-90
2022/06/28 12:15:33;;;;;;;;;;;;;;;;;;4805668;29;19999;-90
2022/06/28 12:18:00;;;;;;;;;;;;;;;;;;4818360;29;19928;-90
2022/06/28 12:20:27;;;;;;;;;;;;;;;;;;4841389;29;20403;-90
2022/06/28 12:22:54;;;;;;;;;;;;;;;;;;4835325;29;20015;-90
2022/06/28 12:25:20;;;;;;;;;;;;;;;;;;4829066;29;19932;-90
2022/06/28 12:27:47;;;;;;;;;;;;;;;;;;4821571;29;19931;-89
2022/06/28 12:30:15;;;;;;;;;;;;;;;;;;4810334;29;20030;-90
2022/06/28 12:32:48;;;;;;;;;;;;;;;;;;4838523;29;19957;-90
2022/06/28 12:35:15;;;;;;;;;;;;;;;;;;4843344;29;19924;-90
2022/06/28 12:37:41;;;;;;;;;;;;;;;;;;4834829;29;19968;-90
2022/06/28 12:40:08;;;;;;;;;;;;;;;;;;4844665;29;19928;-90
2022/06/28 12:42:38;;;;;;;;;;;;;;;;;;4840304;29;20385;-89
2022/06/28 12:45:05;;;;;;;;;;;;;;;;;;4819929;29;19931;-90
2022/06/28 12:47:31;;;;;;;;;;;;;;;;;;4826945;29;19928;-90
2022/06/28 12:49:59;;;;;;;;;;;;;;;;;;4824808;29;19991;-90
2022/06/28 12:52:27;;;;;;;;;;;;;;;;;;4850365;29;19925;-90
2022/06/28 12:54:54;;;;;;;;;;;;;;;;;;4843606;29;19927;-90
2022/06/28 12:57:20;;;;;;;;;;;;;;;;;;4845081;29;19931;-89
2022/06/28 12:59:51;;;;;;;;;;;;;;;;;;4847820;29;19923;-90
2022/06/28 13:02:18;;;;;;;;;;;;;;;;;;4849328;29;19991;-90
2022/06/28 13:04:47;;;;;;;;;;;;;;;;;;4840664;29;19928;-90
2022/06/28 13:07:14;;;;;;;;;;;;;;;;;;4845228;29;19928;-89
2022/06/28 13:09:43;;;;;;;;;;;;;;;;;;4832912;29;19932;-90
2022/06/28 13:12:14;;;;;;;;;;;;;;;;;;4840274;29;19973;-90
2022/06/28 13:14:44;;;;;;;;;;;;;;;;;;4834571;29;19924;-90
2022/06/28 13:17:11;;;;;;;;;;;;;;;;;;4845593;29;19939;-90
2022/06/28 13:19:38;;;;;;;;;;;;;;;;;;4842560;29;19962;-90
2022/06/28 13:22:10;;;;;;;;;;;;;;;;;;4856632;29;19954;-90
2022/06/28 13:24:38;;;;;;;;;;;;;;;;;;4843390;29;19988;-90
2022/06/28 13:27:06;;;;;;;;;;;;;;;;;;4851179;29;20265;-90
2022/06/28 13:29:33;;;;;;;;;;;;;;;;;;4848129;29;19988;-90
2022/06/28 13:32:00;;;;;;;;;;;;;;;;;;4849334;29;19929;-90
2022/06/28 13:34:29;;;;;;;;;;;;;;;;;;4845683;29;19928;-90
2022/06/28 13:36:56;;;;;;;;;;;;;;;;;;4840206;29;20001;-90
2022/06/28 13:39:24;;;;;;;;;;;;;;;;;;4844831;29;19972;-89
2022/06/28 13:41:50;;;;;;;;;;;;;;;;;;4829262;29;19932;-89
2022/06/28 13:44:16;;;;;;;;;;;;;;;;;;4828727;29;19932;-90
2022/06/28 13:46:46;;;;;;;;;;;;;;;;;;4835333;29;20067;-90
2022/06/28 13:49:13;;;;;;;;;;;;;;;;;;4840239;29;19928;-90
2022/06/28 13:51:41;;;;;;;;;;;;;;;;;;4841815;29;19932;-90
2022/06/28 13:54:08;;;;;;;;;;;;;;;;;;4849142;29;19939;-90
2022/06/28 13:56:35;;;;;;;;;;;;;;;;;;4837475;29;19928;-90
2022/06/28 13:59:01;;;;;;;;;;;;;;;;;;4846956;29;19925;-90
2022/06/28 14:01:28;;;;;;;;;;;;;;;;;;4846929;29;20006;-89
2022/06/28 14:03:56;;;;;;;;;;;;;;;;;;4825008;29;20033;-89
2022/06/28 14:06:23;;;;;;;;;;;;;;;;;;4846668;29;19980;-89
2022/06/28 14:08:49;;;;;;;;;;;;;;;;;;4844753;29;19928;-89
2022/06/28 14:11:15;;;;;;;;;;;;;;;;;;4851266;29;19976;-89
2022/06/28 14:13:42;;;;;;;;;;;;;;;;;;4841362;29;19928;-89
2022/06/28 14:16:09;;;;;;;;;;;;;;;;;;4861339;29;20699;-89
2022/06/28 14:18:36;;;;;;;;;;;;;;;;;;4848959;29;19929;-89
2022/06/28 14:21:04;;;;;;;;;;;;;;;;;;4838697;29;19932;-89
2022/06/28 14:23:37;;;;;;;;;;;;;;;;;;4844637;29;19960;-89
2022/06/28 14:26:04;;;;;;;;;;;;;;;;;;4848220;29;19928;-89
2022/06/28 14:28:31;;;;;;;;;;;;;;;;;;4846990;29;19995;-89
2022/06/28 14:30:59;;;;;;;;;;;;;;;;;;4843089;29;19988;-89
2022/06/28 14:33:26;;;;;;;;;;;;;;;;;;4843185;29;20868;-89
2022/06/28 14:35:53;;;;;;;;;;;;;;;;;;4837195;29;19932;-89
2022/06/28 14:38:19;;;;;;;;;;;;;;;;;;4837052;29;19992;-89
2022/06/28 14:40:45;;;;;;;;;;;;;;;;;;4807359;29;19928;-89
2022/06/28 14:43:11;;;;;;;;;;;;;;;;;;4787554;29;19936;-90
2022/06/28 14:45:39;;;;;;;;;;;;;;;;;;4784041;29;19936;-90
2022/06/28 14:48:05;;;;;;;;;;;;;;;;;;4798175;29;22609;-89
2022/06/28 14:50:32;;;;;;;;;;;;;;;;;;4788694;29;19933;-89
2022/06/28 14:53:00;;;;;;;;;;;;;;;;;;4796729;29;20834;-90
2022/06/28 14:55:27;;;;;;;;;;;;;;;;;;4809650;29;19925;-89
2022/06/28 14:57:55;;;;;;;;;;;;;;;;;;4809540;29;19929;-89
2022/06/28 15:00:22;;;;;;;;;;;;;;;;;;4811682;29;19931;-89
2022/06/28 15:02:52;;;;;;;;;;;;;;;;;;4788349;29;20368;-90
2022/06/28 15:05:19;;;;;;;;;;;;;;;;;;4811068;29;20057;-89
2022/06/28 15:07:47;;;;;;;;;;;;;;;;;;4773930;29;19928;-90
2022/06/28 15:10:15;;;;;;;;;;;;;;;;;;4796312;29;19925;-84
2022/06/28 15:12:43;;;;;;;;;;;;;;;;;;4817777;29;19932;-84
2022/06/28 15:15:10;;;;;;;;;;;;;;;;;;4829692;29;19950;-84
2022/06/28 15:17:37;;;;;;;;;;;;;;;;;;4828380;29;19936;-84
2022/06/28 15:20:04;;;;;;;;;;;;;;;;;;4830977;29;20782;-84
2022/06/28 15:30:54;;;;;;;;;;;;;;;;;;4824352;29;19936;-85
2022/06/28 15:33:20;;;;;;;;;;;;;;;;;;4824502;29;19963;-85
2022/06/28 15:35:49;;;;;;;;;;;;;;;;;;4827223;29;19932;-85
2022/06/28 15:38:15;;;;;;;;;;;;;;;;;;4832003;29;20617;-85
2022/06/28 15:40:41;;;;;;;;;;;;;;;;;;4828791;29;20501;-85
2022/06/28 15:43:07;;;;;;;;;;;;;;;;;;4829179;29;19936;-85
2022/06/28 15:45:34;;;;;;;;;;;;;;;;;;4830942;29;19940;-85
2022/06/28 15:48:02;;;;;;;;;;;;;;;;;;4814903;29;19932;-86
2022/06/28 15:50:43;;;;;;;;;;;;;;;;;;4811120;29;19956;-84
2022/06/28 15:53:10;;;;;;;;;;;;;;;;;;4782832;29;20293;-86
2022/06/28 15:55:41;;;;;;;;;;;;;;;;;;4807320;29;19939;-84
2022/06/28 15:58:13;;;;;;;;;;;;;;;;;;4781705;29;20286;-84
2022/06/28 16:00:38;;;;;;;;;;;;;;;;;;4812354;29;19933;-84
2022/06/28 16:03:09;;;;;;;;;;;;;;;;;;4812137;29;19925;-84
2022/06/28 16:05:35;;;;;;;;;;;;;;;;;;4810987;29;19963;-85
2022/06/28 16:08:02;;;;;;;;;;;;;;;;;;4804002;29;19966;-85
2022/06/28 16:10:45;;;;;;;;;;;;;;;;;;4815287;29;20005;-84
2022/06/28 16:13:12;;;;;;;;;;;;;;;;;;4802387;29;19932;-84
2022/06/28 16:15:39;;;;;;;;;;;;;;;;;;4812651;29;19925;-84
2022/06/28 16:18:06;;;;;;;;;;;;;;;;;;4815910;29;20027;-84
2022/06/28 16:20:34;;;;;;;;;;;;;;;;;;4811738;29;19928;-87
2022/06/28 16:23:01;;;;;;;;;;;;;;;;;;4825101;29;19946;-84
2022/06/28 16:25:28;;;;;;;;;;;;;;;;;;4830162;29;19935;-84
2022/06/28 16:28:14;;;;;;;;;;;;;;;;;;4836542;29;19928;-84
2022/06/28 16:31:03;;;;;;;;;;;;;;;;;;4821032;29;19924;-84
2022/06/28 16:33:35;;;;;;;;;;;;;;;;;;4805230;29;20084;-84
2022/06/28 16:36:02;;;;;;;;;;;;;;;;;;4803948;29;19933;-85
2022/06/28 16:38:32;;;;;;;;;;;;;;;;;;4802012;29;19959;-85
2022/06/28 16:40:58;;;;;;;;;;;;;;;;;;4800442;29;19939;-85
2022/06/28 16:43:26;;;;;;;;;;;;;;;;;;4803698;29;19984;-85
2022/06/28 16:45:54;;;;;;;;;;;;;;;;;;4799065;29;19928;-85
2022/06/28 16:48:20;;;;;;;;;;;;;;;;;;4799365;29;19932;-84
2022/06/28 16:50:47;;;;;;;;;;;;;;;;;;4799917;29;20015;-84
2022/06/28 16:53:14;;;;;;;;;;;;;;;;;;4795301;29;19967;-84
2022/06/28 16:55:41;;;;;;;;;;;;;;;;;;4797443;29;19980;-84
2022/06/28 16:58:08;;;;;;;;;;;;;;;;;;4787756;29;20071;-84
2022/06/28 17:00:38;;;;;;;;;;;;;;;;;;4804074;29;19932;-84
2022/06/28 17:03:04;;;;;;;;;;;;;;;;;;4791212;29;19932;-84
2022/06/28 17:05:30;;;;;;;;;;;;;;;;;;4803823;29;20344;-83
2022/06/28 17:07:59;;;;;;;;;;;;;;;;;;4810156;29;19932;-84
2022/06/28 17:10:25;;;;;;;;;;;;;;;;;;4812997;29;19933;-84
2022/06/28 17:12:52;;;;;;;;;;;;;;;;;;4808929;29;19991;-84
2022/06/28 17:15:18;;;;;;;;;;;;;;;;;;4824705;29;19979;-84